In Rescue
 
Open Full Screen Window  High Contrast Mode
Wind Gusting 00 knots
04
January 24, 2020 8:25 PM EST
Weather Information
Wind Direction
  080 °
Wind Speed
  04 kt (5 mph)
Wind Gust
  00 kt (0 mph)
Altimeter
30.25 in
Visibility
10 SM
Temperature
06° C
43° F
Dewpoint
-03° C
27° F
Humidity
53%
1hr Rain Fall
00.00 in.
24hr Rain Fall
00.00 in.
Sky Condition
Broken @ 6,000 ft
Scattered @ 5,000 ft
VFR

METAR KUKT 250125Z AUTO 08004KT 10SM SCT050 BKN060 06/M03 A3025 RMK A01

FAA Disclaimer: The data displayed is for advisory purposes only and is not to be used for flight planning or operations.